createdAt,value
2022-10-02T00:02:36.307Z,94.83
2022-10-02T00:05:19.373Z,94.50
2022-10-02T00:07:53.115Z,94.63
2022-10-02T00:10:38.532Z,94.51
2022-10-02T00:13:07.571Z,95.01
2022-10-02T00:15:35.432Z,94.24
2022-10-02T00:18:04.542Z,94.61
2022-10-02T00:20:53.794Z,94.51
2022-10-02T00:23:48.251Z,94.47
2022-10-02T00:26:20.991Z,94.43
2022-10-02T00:29:20.516Z,95.22
2022-10-02T00:31:59.179Z,94.58
2022-10-02T00:34:50.079Z,94.79
2022-10-02T00:37:35.785Z,95.03
2022-10-02T00:40:32.736Z,94.93
2022-10-02T00:43:14.319Z,94.51
2022-10-02T00:46:05.169Z,94.30
2022-10-02T00:48:40.394Z,94.53
2022-10-02T00:51:22.241Z,94.60
2022-10-02T00:54:07.384Z,94.71
2022-10-02T00:56:52.642Z,94.60
2022-10-02T00:59:31.887Z,94.72
2022-10-02T01:01:59.955Z,94.92
2022-10-02T01:04:31.951Z,94.42
2022-10-02T01:06:58.678Z,94.94
2022-10-02T01:09:25.387Z,95.10
2022-10-02T01:11:52.130Z,94.87
2022-10-02T01:14:18.907Z,94.68
2022-10-02T01:16:45.602Z,95.20
2022-10-02T01:19:28.215Z,95.06
2022-10-02T01:22:00.858Z,95.53
2022-10-02T01:24:33.841Z,95.81
2022-10-02T01:27:00.404Z,95.66
2022-10-02T01:29:27.242Z,96.54
2022-10-02T01:31:53.819Z,97.14
2022-10-02T01:34:20.998Z,97.10
2022-10-02T01:36:47.926Z,98.36
2022-10-02T01:39:14.654Z,98.76
2022-10-02T01:41:42.504Z,98.93
2022-10-02T01:44:09.092Z,99.26
2022-10-02T01:46:40.326Z,99.35
2022-10-02T01:49:28.786Z,99.65
2022-10-02T01:52:04.014Z,99.83
2022-10-02T01:54:59.441Z,100.00
2022-10-02T01:57:44.691Z,100.00
2022-10-02T02:00:18.968Z,100.00
2022-10-02T02:02:48.478Z,100.00
2022-10-02T02:05:33.273Z,100.00
2022-10-02T02:08:14.308Z,100.00
2022-10-02T02:11:11.845Z,100.00
2022-10-02T02:13:38.328Z,100.00
2022-10-02T02:16:26.513Z,100.00
2022-10-02T02:19:05.239Z,100.00
2022-10-02T02:21:39.392Z,100.00
2022-10-02T02:24:10.119Z,100.00
2022-10-02T02:26:36.979Z,100.00
2022-10-02T02:29:06.405Z,100.00
2022-10-02T02:31:35.817Z,100.00
2022-10-02T02:34:03.874Z,100.00
2022-10-02T02:36:36.860Z,100.00
2022-10-02T02:39:07.468Z,100.00
2022-10-02T02:41:38.303Z,100.00
2022-10-02T02:44:26.096Z,100.00
2022-10-02T02:47:03.229Z,100.00
2022-10-02T02:49:34.670Z,100.00
2022-10-02T02:52:01.804Z,100.00
2022-10-02T02:54:42.291Z,100.00
2022-10-02T02:57:08.930Z,100.00
2022-10-02T02:59:36.676Z,100.00
2022-10-02T03:02:03.301Z,100.00
2022-10-02T03:04:29.974Z,100.00
2022-10-02T03:06:58.776Z,100.00
2022-10-02T03:09:25.380Z,100.00
2022-10-02T03:12:12.035Z,100.00
2022-10-02T03:14:53.798Z,100.00
2022-10-02T03:17:32.400Z,100.00
2022-10-02T03:20:11.379Z,100.00
2022-10-02T03:22:55.642Z,100.00
2022-10-02T03:25:22.155Z,100.00
2022-10-02T03:27:53.682Z,100.00
2022-10-02T03:30:20.367Z,100.00
2022-10-02T03:32:47.298Z,100.00
2022-10-02T03:35:14.065Z,100.00
2022-10-02T03:37:45.896Z,100.00
2022-10-02T03:40:12.550Z,100.00
2022-10-02T03:42:39.286Z,100.00
2022-10-02T03:45:06.438Z,100.00
2022-10-02T03:47:33.012Z,100.00
2022-10-02T03:49:59.555Z,100.00
2022-10-02T03:52:26.127Z,100.00
2022-10-02T03:54:56.985Z,100.00
2022-10-02T03:57:24.730Z,100.00
2022-10-02T03:59:57.378Z,100.00
2022-10-02T04:02:34.849Z,100.00
2022-10-02T04:05:16.676Z,100.00
2022-10-02T04:07:43.668Z,100.00
2022-10-02T04:10:12.964Z,100.00
2022-10-02T04:12:41.808Z,100.00
2022-10-02T04:15:36.280Z,100.00
2022-10-02T04:18:07.973Z,100.00
2022-10-02T04:20:52.894Z,100.00
2022-10-02T04:23:25.531Z,100.00
2022-10-02T04:25:53.808Z,100.00
2022-10-02T04:28:22.728Z,100.00
2022-10-02T04:30:52.637Z,100.00
2022-10-02T04:33:20.526Z,100.00
2022-10-02T04:35:56.426Z,100.00
2022-10-02T04:38:33.349Z,100.00
2022-10-02T04:41:02.925Z,100.00
2022-10-02T04:43:50.995Z,100.00
2022-10-02T04:46:23.545Z,100.00
2022-10-02T04:49:14.793Z,100.00
2022-10-02T04:51:56.583Z,100.00
2022-10-02T04:54:25.922Z,100.00
2022-10-02T04:57:02.531Z,100.00
2022-10-02T04:59:44.329Z,100.00
2022-10-02T05:02:25.001Z,100.00
2022-10-02T05:05:13.254Z,100.00
2022-10-02T05:07:48.677Z,100.00
2022-10-02T05:10:29.219Z,100.00
2022-10-02T05:13:09.068Z,100.00
2022-10-02T05:15:46.244Z,100.00
2022-10-02T05:18:51.979Z,100.00
2022-10-02T05:21:30.921Z,100.00
2022-10-02T05:24:22.055Z,100.00
2022-10-02T05:27:14.076Z,100.00
2022-10-02T05:30:13.506Z,100.00
2022-10-02T05:33:01.341Z,100.00
2022-10-02T05:35:45.594Z,100.00
2022-10-02T05:38:20.960Z,100.00
2022-10-02T05:41:07.953Z,100.00
2022-10-02T05:43:56.149Z,100.00
2022-10-02T05:46:27.131Z,100.00
2022-10-02T05:49:06.881Z,100.00
2022-10-02T05:51:52.100Z,100.00
2022-10-02T05:54:21.868Z,100.00
2022-10-02T05:56:53.737Z,100.00
2022-10-02T05:59:24.386Z,100.00
2022-10-02T06:01:51.016Z,100.00
2022-10-02T06:04:37.840Z,100.00
2022-10-02T06:07:07.566Z,100.00
2022-10-02T06:09:38.723Z,100.00
2022-10-02T06:12:11.800Z,100.00
2022-10-02T06:14:39.425Z,100.00
2022-10-02T06:17:11.730Z,100.00
2022-10-02T06:20:11.175Z,100.00
2022-10-02T06:22:44.265Z,100.00
2022-10-02T06:25:29.641Z,100.00
2022-10-02T06:28:11.217Z,100.00
2022-10-02T06:30:41.092Z,100.00
2022-10-02T06:33:24.710Z,100.00
2022-10-02T06:36:21.863Z,100.00
2022-10-02T06:39:22.467Z,100.00
2022-10-02T06:42:14.764Z,100.00
2022-10-02T06:44:47.575Z,100.00
2022-10-02T06:47:35.792Z,100.00
2022-10-02T06:50:36.608Z,100.00
2022-10-02T06:53:31.399Z,100.00
2022-10-02T06:56:26.195Z,100.00
2022-10-02T06:59:40.658Z,100.00
2022-10-02T07:02:20.240Z,100.00
2022-10-02T07:04:52.722Z,100.00
2022-10-02T07:07:41.320Z,100.00
2022-10-02T07:10:14.077Z,100.00
2022-10-02T07:13:01.815Z,100.00
2022-10-02T07:15:31.290Z,100.00
2022-10-02T07:17:57.768Z,100.00
2022-10-02T07:20:30.270Z,100.00
2022-10-02T07:23:11.950Z,100.00
2022-10-02T07:25:44.254Z,100.00
2022-10-02T07:28:25.791Z,100.00
2022-10-02T07:31:01.375Z,100.00
2022-10-02T07:33:29.985Z,100.00
2022-10-02T07:36:05.372Z,100.00
2022-10-02T07:38:34.860Z,100.00
2022-10-02T07:41:24.398Z,100.00
2022-10-02T07:44:06.062Z,100.00
2022-10-02T07:46:46.643Z,100.00
2022-10-02T07:49:17.119Z,100.00
2022-10-02T07:51:43.592Z,100.00
2022-10-02T07:54:19.142Z,100.00
2022-10-02T07:56:45.802Z,100.00
2022-10-02T07:59:13.659Z,100.00
2022-10-02T08:01:40.382Z,100.00
2022-10-02T08:04:35.979Z,100.00
2022-10-02T08:07:03.607Z,100.00
2022-10-02T08:09:47.306Z,100.00
2022-10-02T08:12:23.125Z,100.00
2022-10-02T08:14:49.755Z,100.00
2022-10-02T08:17:24.833Z,100.00
2022-10-02T08:19:51.501Z,99.86
2022-10-02T08:22:31.061Z,100.00
2022-10-02T08:24:59.725Z,100.00
2022-10-02T08:27:48.215Z,99.91
2022-10-02T08:30:15.175Z,100.00
2022-10-02T08:32:41.781Z,99.34
2022-10-02T08:35:16.262Z,99.54
2022-10-02T08:38:18.104Z,100.00
2022-10-02T08:41:06.457Z,99.99
2022-10-02T08:43:53.165Z,99.34
2022-10-02T08:46:24.570Z,99.10
2022-10-02T08:49:28.137Z,99.33
2022-10-02T08:52:25.073Z,99.41
2022-10-02T08:55:11.135Z,99.33
2022-10-02T08:57:55.378Z,99.18
2022-10-02T09:00:31.493Z,99.25
2022-10-02T09:03:25.511Z,98.71
2022-10-02T09:06:49.027Z,99.20
2022-10-02T09:09:42.975Z,99.40
2022-10-02T09:12:44.458Z,99.65
2022-10-02T09:15:18.400Z,99.64
2022-10-02T09:17:51.949Z,100.00
2022-10-02T09:20:41.322Z,99.42
2022-10-02T09:23:07.869Z,99.09
2022-10-02T09:25:40.432Z,99.11
2022-10-02T09:28:26.144Z,98.35
2022-10-02T09:31:28.703Z,99.15
2022-10-02T09:34:04.429Z,99.35
2022-10-02T09:36:49.720Z,99.56
2022-10-02T09:39:41.057Z,99.44
2022-10-02T09:42:45.153Z,99.22
2022-10-02T09:45:54.692Z,98.61
2022-10-02T09:48:39.792Z,98.85
2022-10-02T09:51:21.757Z,99.47
2022-10-02T09:54:03.689Z,99.55
2022-10-02T09:56:48.458Z,99.58
2022-10-02T09:59:36.272Z,99.17
2022-10-02T10:02:05.593Z,99.66
2022-10-02T10:05:01.296Z,99.34
2022-10-02T10:07:58.611Z,98.72
2022-10-02T10:10:28.074Z,98.67
2022-10-02T10:13:14.478Z,98.91
2022-10-02T10:15:59.016Z,99.04
2022-10-02T10:18:42.032Z,99.21
2022-10-02T10:21:42.704Z,99.09
2022-10-02T10:24:21.231Z,98.47
2022-10-02T10:27:16.002Z,99.07
2022-10-02T10:30:17.513Z,99.02
2022-10-02T10:32:53.587Z,98.78
2022-10-02T10:35:36.633Z,99.03
2022-10-02T10:38:11.886Z,98.48
2022-10-02T10:40:59.468Z,99.23
2022-10-02T10:44:03.891Z,98.65
2022-10-02T10:46:48.661Z,98.96
2022-10-02T10:49:33.660Z,98.73
2022-10-02T10:52:34.995Z,99.68
2022-10-02T10:56:09.353Z,99.70
2022-10-02T10:58:51.057Z,99.58
2022-10-02T11:01:26.540Z,100.00
2022-10-02T11:04:31.929Z,99.82
2022-10-02T11:07:02.158Z,99.37
2022-10-02T11:09:51.281Z,99.92
2022-10-02T11:12:43.187Z,100.00
2022-10-02T11:15:27.134Z,99.92
2022-10-02T11:17:53.618Z,99.71
2022-10-02T11:20:57.428Z,99.67
2022-10-02T11:24:14.690Z,99.57
2022-10-02T11:26:56.022Z,99.43
2022-10-02T11:29:50.954Z,99.93
2022-10-02T11:32:39.208Z,100.00
2022-10-02T11:35:21.629Z,100.00
2022-10-02T11:38:07.057Z,100.00
2022-10-02T11:40:54.883Z,99.55
2022-10-02T11:43:24.461Z,99.44
2022-10-02T11:46:20.461Z,99.53
2022-10-02T11:48:53.149Z,99.07
2022-10-02T11:51:42.484Z,99.26
2022-10-02T11:54:34.816Z,99.58
2022-10-02T11:57:29.139Z,99.03
2022-10-02T12:00:27.483Z,99.87
2022-10-02T12:03:09.774Z,99.39
2022-10-02T12:06:17.771Z,99.44
2022-10-02T12:09:05.442Z,100.00
2022-10-02T12:11:31.883Z,100.00
2022-10-02T12:14:22.885Z,100.00
2022-10-02T12:16:52.713Z,100.00
2022-10-02T12:19:48.550Z,100.00
2022-10-02T12:22:24.515Z,100.00
2022-10-02T12:25:10.518Z,100.00
2022-10-02T12:27:40.016Z,100.00
2022-10-02T12:30:16.629Z,100.00
2022-10-02T12:33:14.610Z,100.00
2022-10-02T12:36:02.697Z,100.00
2022-10-02T12:38:59.591Z,100.00
2022-10-02T12:41:38.688Z,100.00
2022-10-02T12:44:22.574Z,100.00
2022-10-02T12:47:22.903Z,100.00
2022-10-02T12:50:27.499Z,100.00
2022-10-02T12:53:12.624Z,100.00
2022-10-02T12:55:48.096Z,100.00
2022-10-02T12:58:14.515Z,100.00
2022-10-02T13:01:10.046Z,100.00
2022-10-02T13:03:39.878Z,100.00
2022-10-02T13:06:41.300Z,100.00
2022-10-02T13:09:31.103Z,100.00
2022-10-02T13:12:12.730Z,100.00
2022-10-02T13:15:20.664Z,99.66
2022-10-02T13:18:30.878Z,99.71
2022-10-02T13:21:18.412Z,99.09
2022-10-02T13:23:57.828Z,99.24
2022-10-02T13:26:49.379Z,99.05
2022-10-02T13:29:37.818Z,98.61
2022-10-02T13:32:25.802Z,98.39
2022-10-02T13:35:17.224Z,98.87
2022-10-02T13:38:18.967Z,99.55
2022-10-02T13:41:07.463Z,99.41
2022-10-02T13:43:46.063Z,99.15
2022-10-02T13:46:35.943Z,99.27
2022-10-02T13:49:18.272Z,98.59
2022-10-02T13:52:03.556Z,99.24
2022-10-02T13:55:11.631Z,99.40
2022-10-02T13:57:55.648Z,99.33
2022-10-02T14:00:23.862Z,99.33
2022-10-02T14:03:08.679Z,98.75
2022-10-02T14:05:46.730Z,98.83
2022-10-02T14:08:51.561Z,98.96
2022-10-02T14:11:40.239Z,98.90
2022-10-02T14:14:15.981Z,99.28
2022-10-02T14:17:07.481Z,99.19
2022-10-02T14:19:46.676Z,99.48
2022-10-02T14:22:22.603Z,98.95
2022-10-02T14:25:17.161Z,98.80
2022-10-02T14:27:58.622Z,99.31
2022-10-02T14:30:46.667Z,99.22
2022-10-02T14:33:28.525Z,99.43
2022-10-02T14:36:01.924Z,99.44
2022-10-02T14:38:53.941Z,99.35
2022-10-02T14:41:23.403Z,99.47
2022-10-02T14:44:15.305Z,99.61
2022-10-02T14:46:44.448Z,99.83
2022-10-02T14:49:13.537Z,99.67
2022-10-02T14:51:40.116Z,99.83
2022-10-02T14:54:21.998Z,100.00
2022-10-02T14:57:10.517Z,100.00
2022-10-02T14:59:58.989Z,100.00
2022-10-02T15:02:39.312Z,100.00
2022-10-02T15:05:24.665Z,100.00
2022-10-02T15:07:52.790Z,99.96
2022-10-02T15:10:25.033Z,100.00
2022-10-02T15:12:59.630Z,100.00
2022-10-02T15:15:42.888Z,100.00
2022-10-02T15:18:34.363Z,100.00
2022-10-02T15:21:18.719Z,100.00
2022-10-02T15:23:46.959Z,100.00
2022-10-02T15:26:16.581Z,100.00
2022-10-02T15:28:58.745Z,100.00
2022-10-02T15:31:31.226Z,100.00
2022-10-02T15:34:19.499Z,100.00
2022-10-02T15:36:58.028Z,100.00
2022-10-02T15:39:30.727Z,100.00
2022-10-02T15:42:10.057Z,100.00
2022-10-02T15:45:02.968Z,100.00
2022-10-02T15:47:55.446Z,100.00
2022-10-02T15:50:24.318Z,100.00
2022-10-02T15:53:25.941Z,100.00
2022-10-02T15:56:17.783Z,100.00
2022-10-02T15:59:02.857Z,100.00
2022-10-02T16:01:47.953Z,100.00
2022-10-02T16:04:33.423Z,100.00
2022-10-02T16:07:09.160Z,100.00
2022-10-02T16:09:44.666Z,100.00
2022-10-02T16:12:20.084Z,100.00
2022-10-02T16:14:50.874Z,100.00
2022-10-02T16:17:45.478Z,100.00
2022-10-02T16:20:33.675Z,100.00
2022-10-02T16:23:25.255Z,100.00
2022-10-02T16:26:06.909Z,100.00
2022-10-02T16:28:45.877Z,100.00
2022-10-02T16:31:26.379Z,100.00
2022-10-02T16:34:21.327Z,100.00
2022-10-02T16:37:15.153Z,100.00
2022-10-02T16:39:56.698Z,100.00
2022-10-02T16:42:32.058Z,100.00
2022-10-02T16:45:18.044Z,100.00
2022-10-02T16:48:02.755Z,100.00
2022-10-02T16:50:50.797Z,100.00
2022-10-02T16:53:28.204Z,100.00
2022-10-02T16:55:58.377Z,100.00
2022-10-02T16:58:25.285Z,100.00
2022-10-02T17:00:57.379Z,100.00
2022-10-02T17:03:27.153Z,100.00
2022-10-02T17:06:24.015Z,100.00
2022-10-02T17:09:12.161Z,100.00
2022-10-02T17:11:59.236Z,100.00
2022-10-02T17:14:41.985Z,100.00
2022-10-02T17:17:47.398Z,100.00
2022-10-02T17:20:32.380Z,100.00
2022-10-02T17:23:06.828Z,100.00
2022-10-02T17:26:07.278Z,100.00
2022-10-02T17:28:54.072Z,100.00
2022-10-02T17:31:46.293Z,100.00
2022-10-02T17:34:17.039Z,100.00
2022-10-02T17:37:02.826Z,100.00
2022-10-02T17:39:48.767Z,100.00
2022-10-02T17:42:46.205Z,100.00
2022-10-02T17:45:24.720Z,100.00
2022-10-02T17:48:25.369Z,100.00
2022-10-02T17:51:14.196Z,100.00
2022-10-02T17:53:59.301Z,100.00
2022-10-02T17:56:38.189Z,100.00
2022-10-02T17:59:16.630Z,100.00
2022-10-02T18:01:45.469Z,100.00
2022-10-02T18:04:33.296Z,100.00
2022-10-02T18:07:05.780Z,100.00
2022-10-02T18:09:47.241Z,100.00
2022-10-02T18:12:25.934Z,100.00
2022-10-02T18:15:15.871Z,100.00
2022-10-02T18:18:00.971Z,100.00
2022-10-02T18:20:52.018Z,100.00
2022-10-02T18:23:19.479Z,100.00
2022-10-02T18:25:56.925Z,100.00
2022-10-02T18:28:29.115Z,100.00
2022-10-02T18:31:14.234Z,100.00
2022-10-02T18:34:08.780Z,100.00
2022-10-02T18:36:38.600Z,100.00
2022-10-02T18:39:29.798Z,100.00
2022-10-02T18:42:17.208Z,100.00
2022-10-02T18:44:57.049Z,100.00
2022-10-02T18:47:39.848Z,100.00
2022-10-02T18:50:20.141Z,100.00
2022-10-02T18:52:54.670Z,100.00
2022-10-02T18:55:28.398Z,100.00
2022-10-02T18:57:57.844Z,100.00
2022-10-02T19:00:53.738Z,100.00
2022-10-02T19:03:22.095Z,100.00
2022-10-02T19:06:08.563Z,100.00
2022-10-02T19:08:57.151Z,100.00
2022-10-02T19:11:27.715Z,100.00
2022-10-02T19:13:54.533Z,100.00
2022-10-02T19:16:25.228Z,100.00
2022-10-02T19:19:19.061Z,100.00
2022-10-02T19:21:45.670Z,100.00
2022-10-02T19:24:13.872Z,100.00
2022-10-02T19:26:45.536Z,100.00
2022-10-02T19:29:52.305Z,100.00
2022-10-02T19:32:20.365Z,100.00
2022-10-02T19:34:55.710Z,100.00
2022-10-02T19:37:24.430Z,100.00
2022-10-02T19:39:53.354Z,100.00
2022-10-02T19:42:26.037Z,100.00
2022-10-02T19:44:56.233Z,100.00
2022-10-02T19:47:31.900Z,100.00
2022-10-02T19:49:59.062Z,100.00
2022-10-02T19:52:41.207Z,100.00
2022-10-02T19:55:21.123Z,100.00
2022-10-02T19:57:48.127Z,100.00
2022-10-02T20:00:16.270Z,100.00
2022-10-02T20:02:56.403Z,100.00
2022-10-02T20:05:26.020Z,100.00
2022-10-02T20:07:55.449Z,100.00
2022-10-02T20:10:26.978Z,100.00
2022-10-02T20:13:16.823Z,100.00
2022-10-02T20:16:20.181Z,100.00
2022-10-02T20:18:47.492Z,100.00
2022-10-02T20:21:26.256Z,100.00
2022-10-02T20:23:54.610Z,100.00
2022-10-02T20:26:22.311Z,100.00
2022-10-02T20:29:00.291Z,100.00
2022-10-02T20:31:45.478Z,100.00
2022-10-02T20:34:23.664Z,100.00
2022-10-02T20:36:57.859Z,100.00
2022-10-02T20:39:28.926Z,100.00
2022-10-02T20:42:00.317Z,100.00
2022-10-02T20:44:30.905Z,100.00
2022-10-02T20:47:34.900Z,100.00
2022-10-02T20:50:10.193Z,100.00
2022-10-02T20:53:01.030Z,100.00
2022-10-02T20:55:37.437Z,100.00
2022-10-02T20:58:18.712Z,100.00
2022-10-02T21:01:17.062Z,100.00
2022-10-02T21:03:55.895Z,100.00
2022-10-02T21:06:45.678Z,100.00
2022-10-02T21:09:57.909Z,100.00
2022-10-02T21:12:59.993Z,100.00
2022-10-02T21:15:43.427Z,100.00
2022-10-02T21:18:42.376Z,100.00
2022-10-02T21:21:08.885Z,100.00
2022-10-02T21:23:47.025Z,100.00
2022-10-02T21:26:28.320Z,100.00
2022-10-02T21:29:24.865Z,100.00
2022-10-02T21:32:09.863Z,100.00
2022-10-02T21:34:39.039Z,100.00
2022-10-02T21:37:12.637Z,100.00
2022-10-02T21:39:57.800Z,100.00
2022-10-02T21:42:58.561Z,100.00
2022-10-02T21:45:38.815Z,100.00
2022-10-02T21:48:11.396Z,100.00
2022-10-02T21:50:41.061Z,100.00
2022-10-02T21:53:48.934Z,100.00
2022-10-02T21:56:54.441Z,100.00
2022-10-02T21:59:40.077Z,100.00
2022-10-02T22:02:12.531Z,100.00
2022-10-02T22:05:14.555Z,100.00
2022-10-02T22:08:01.975Z,100.00
2022-10-02T22:10:36.205Z,100.00
2022-10-02T22:13:20.051Z,100.00
2022-10-02T22:16:08.390Z,100.00
2022-10-02T22:19:09.134Z,100.00
2022-10-02T22:21:47.738Z,100.00
2022-10-02T22:24:45.563Z,100.00
2022-10-02T22:27:36.953Z,100.00
2022-10-02T22:30:03.888Z,100.00
2022-10-02T22:32:48.783Z,100.00
2022-10-02T22:35:34.650Z,100.00
2022-10-02T22:38:11.511Z,100.00
2022-10-02T22:40:59.575Z,100.00
2022-10-02T22:43:49.546Z,100.00
2022-10-02T22:46:28.621Z,100.00
2022-10-02T22:49:16.187Z,100.00
2022-10-02T22:51:44.253Z,100.00
2022-10-02T22:54:13.789Z,100.00
2022-10-02T22:57:03.569Z,100.00
2022-10-02T22:59:36.702Z,100.00
2022-10-02T23:02:10.158Z,100.00
2022-10-02T23:05:12.550Z,100.00
2022-10-02T23:07:55.382Z,100.00
2022-10-02T23:10:40.032Z,100.00
2022-10-02T23:13:13.834Z,100.00
2022-10-02T23:15:53.384Z,100.00
2022-10-02T23:18:52.448Z,100.00
2022-10-02T23:21:48.390Z,100.00
2022-10-02T23:24:21.201Z,100.00
2022-10-02T23:26:49.472Z,100.00
2022-10-02T23:29:31.068Z,100.00
2022-10-02T23:32:19.880Z,100.00
2022-10-02T23:35:06.087Z,100.00
2022-10-02T23:37:53.648Z,100.00
2022-10-02T23:40:31.634Z,100.00
2022-10-02T23:42:59.050Z,100.00
2022-10-02T23:45:27.465Z,100.00
2022-10-02T23:47:58.192Z,100.00
2022-10-02T23:50:32.621Z,100.00
2022-10-02T23:53:20.508Z,100.00
2022-10-02T23:56:08.426Z,100.00
2022-10-02T23:58:44.525Z,100.00
